createdAt,value
2023-04-27T00:02:18.460Z,3.59
2023-04-27T00:04:51.699Z,3.52
2023-04-27T00:07:24.541Z,3.52
2023-04-27T00:09:57.498Z,3.52
2023-04-27T00:12:30.099Z,3.49
2023-04-27T00:15:02.849Z,3.43
2023-04-27T00:17:35.784Z,3.34
2023-04-27T00:20:11.739Z,3.30
2023-04-27T00:22:44.509Z,3.24
2023-04-27T00:25:17.079Z,3.21
2023-04-27T00:27:49.572Z,3.18
2023-04-27T00:30:22.088Z,3.14
2023-04-27T00:32:54.951Z,3.09
2023-04-27T00:35:27.574Z,3.07
2023-04-27T00:38:00.282Z,3.03
2023-04-27T00:40:32.993Z,2.98
2023-04-27T00:43:06.080Z,2.93
2023-04-27T00:45:44.045Z,2.93
2023-04-27T00:48:16.753Z,2.91
2023-04-27T00:50:49.835Z,2.88
2023-04-27T00:53:22.543Z,2.83
2023-04-27T00:55:56.377Z,2.81
2023-04-27T00:58:28.878Z,2.79
2023-04-27T01:01:01.651Z,2.76
2023-04-27T01:03:34.567Z,2.74
2023-04-27T01:06:07.545Z,2.74
2023-04-27T01:08:40.009Z,2.70
2023-04-27T01:11:12.631Z,2.68
2023-04-27T01:13:46.189Z,2.63
2023-04-27T01:16:19.153Z,2.58
2023-04-27T01:18:52.114Z,2.54
2023-04-27T01:21:26.062Z,2.50
2023-04-27T01:23:58.612Z,2.46
2023-04-27T01:26:31.521Z,2.42
2023-04-27T01:29:04.114Z,2.39
2023-04-27T01:31:36.704Z,2.37
2023-04-27T01:34:09.617Z,2.34
2023-04-27T01:36:42.135Z,2.32
2023-04-27T01:39:15.172Z,2.31
2023-04-27T01:41:47.810Z,2.35
2023-04-27T01:44:21.097Z,2.34
2023-04-27T01:46:53.630Z,2.33
2023-04-27T01:49:26.266Z,2.30
2023-04-27T01:51:58.784Z,2.32
2023-04-27T01:54:31.397Z,2.28
2023-04-27T01:57:03.863Z,2.24
2023-04-27T01:59:36.370Z,2.25
2023-04-27T02:02:08.948Z,2.28
2023-04-27T02:04:43.190Z,2.22
2023-04-27T02:07:16.234Z,2.20
2023-04-27T02:09:48.861Z,2.19
2023-04-27T02:12:21.430Z,2.14
2023-04-27T02:14:53.947Z,2.10
2023-04-27T02:17:26.672Z,2.06
2023-04-27T02:19:59.222Z,2.00
2023-04-27T02:22:31.678Z,2.01
2023-04-27T02:25:04.608Z,1.96
2023-04-27T02:27:41.490Z,1.94
2023-04-27T02:30:15.346Z,1.92
2023-04-27T02:32:48.399Z,1.95
2023-04-27T02:35:21.153Z,1.96
2023-04-27T02:37:53.678Z,1.91
2023-04-27T02:40:26.381Z,1.92
2023-04-27T02:42:58.941Z,1.92
2023-04-27T02:45:31.535Z,1.89
2023-04-27T02:48:04.379Z,1.83
2023-04-27T02:50:44.856Z,1.86
2023-04-27T02:53:17.388Z,1.86
2023-04-27T02:55:51.110Z,1.87
2023-04-27T02:58:24.087Z,1.87
2023-04-27T03:00:57.378Z,1.88
2023-04-27T03:03:30.188Z,1.89
2023-04-27T03:06:03.848Z,1.88
2023-04-27T03:08:36.781Z,1.88
2023-04-27T03:11:09.601Z,1.88
2023-04-27T03:13:42.242Z,1.89
2023-04-27T03:16:14.901Z,1.92
2023-04-27T03:18:47.550Z,1.93
2023-04-27T03:21:20.294Z,1.88
2023-04-27T03:23:53.253Z,1.90
2023-04-27T03:26:26.376Z,1.92
2023-04-27T03:28:59.006Z,1.91
2023-04-27T03:31:31.638Z,1.90
2023-04-27T03:34:04.255Z,1.91
2023-04-27T03:36:36.747Z,1.97
2023-04-27T03:39:09.546Z,1.94
2023-04-27T03:41:42.336Z,1.92
2023-04-27T03:44:14.938Z,1.88
2023-04-27T03:46:47.494Z,1.83
2023-04-27T03:49:20.006Z,1.80
2023-04-27T03:51:52.463Z,1.76
2023-04-27T03:54:25.058Z,1.74
2023-04-27T03:56:57.703Z,1.66
2023-04-27T03:59:30.390Z,1.64
2023-04-27T04:02:04.042Z,1.59
2023-04-27T04:04:36.904Z,1.58
2023-04-27T04:07:09.529Z,1.55
2023-04-27T04:09:43.371Z,1.58
2023-04-27T04:12:15.861Z,1.57
2023-04-27T04:14:49.121Z,1.56
2023-04-27T04:17:21.833Z,1.56
2023-04-27T04:19:54.459Z,1.55
2023-04-27T04:22:27.257Z,1.49
2023-04-27T04:24:59.746Z,1.55
2023-04-27T04:27:33.476Z,1.53
2023-04-27T04:30:07.503Z,1.50
2023-04-27T04:32:40.315Z,1.52
2023-04-27T04:35:13.200Z,1.53
2023-04-27T04:37:46.715Z,1.54
2023-04-27T04:40:19.473Z,1.56
2023-04-27T04:42:52.839Z,1.58
2023-04-27T04:45:25.937Z,1.62
2023-04-27T04:48:00.735Z,1.64
2023-04-27T04:50:33.573Z,1.67
2023-04-27T04:53:06.463Z,1.71
2023-04-27T04:55:39.005Z,1.76
2023-04-27T04:58:11.634Z,1.86
2023-04-27T05:00:44.153Z,1.91
2023-04-27T05:03:16.833Z,2.02
2023-04-27T05:05:49.487Z,2.08
2023-04-27T05:08:22.045Z,2.12
2023-04-27T05:10:54.911Z,2.25
2023-04-27T05:13:27.961Z,2.32
2023-04-27T05:16:07.832Z,2.43
2023-04-27T05:18:40.511Z,2.49
2023-04-27T05:21:17.531Z,2.52
2023-04-27T05:23:50.118Z,2.58
2023-04-27T05:26:22.659Z,2.71
2023-04-27T05:28:55.208Z,2.82
2023-04-27T05:31:28.028Z,2.92
2023-04-27T05:34:00.622Z,3.00
2023-04-27T05:36:33.150Z,3.07
2023-04-27T05:39:05.987Z,3.18
2023-04-27T05:41:38.631Z,3.35
2023-04-27T05:44:11.199Z,3.30
2023-04-27T05:46:43.720Z,3.36
2023-04-27T05:49:16.264Z,3.47
2023-04-27T05:51:48.835Z,3.69
2023-04-27T05:54:21.427Z,3.81
2023-04-27T05:56:53.975Z,3.97
2023-04-27T05:59:27.499Z,4.02
2023-04-27T06:02:00.032Z,4.11
2023-04-27T06:04:33.405Z,4.14
2023-04-27T06:07:13.623Z,4.15
2023-04-27T06:09:46.178Z,4.35
2023-04-27T06:12:18.753Z,4.53
2023-04-27T06:14:51.434Z,4.58
2023-04-27T06:17:23.939Z,4.58
2023-04-27T06:19:56.510Z,4.72
2023-04-27T06:22:29.044Z,4.81
2023-04-27T06:25:01.592Z,4.89
2023-04-27T06:27:35.322Z,5.16
2023-04-27T06:30:08.486Z,5.21
2023-04-27T06:32:41.021Z,5.42
2023-04-27T06:35:13.645Z,5.58
2023-04-27T06:37:47.202Z,5.81
2023-04-27T06:40:19.854Z,5.83
2023-04-27T06:42:53.164Z,5.89
2023-04-27T06:45:25.759Z,5.95
2023-04-27T06:47:58.425Z,6.09
2023-04-27T06:50:31.033Z,6.31
2023-04-27T06:53:04.818Z,6.29
2023-04-27T06:55:37.330Z,6.50
2023-04-27T06:58:09.898Z,6.67
2023-04-27T07:00:42.630Z,6.97
2023-04-27T07:03:15.675Z,6.92
2023-04-27T07:05:48.324Z,6.90
2023-04-27T07:08:20.937Z,7.25
2023-04-27T07:10:53.646Z,7.28
2023-04-27T07:13:26.174Z,7.43
2023-04-27T07:15:58.910Z,7.35
2023-04-27T07:18:31.530Z,7.42
2023-04-27T07:21:04.109Z,7.59
2023-04-27T07:23:36.638Z,7.72
2023-04-27T07:26:09.963Z,7.82
2023-04-27T07:28:42.430Z,7.90
2023-04-27T07:31:14.964Z,7.89
2023-04-27T07:33:47.680Z,7.95
2023-04-27T07:36:20.224Z,8.15
2023-04-27T07:38:53.072Z,8.37
2023-04-27T07:41:25.629Z,8.50
2023-04-27T07:43:58.162Z,8.54
2023-04-27T07:46:31.703Z,8.67
2023-04-27T07:49:04.282Z,8.66
2023-04-27T07:51:36.987Z,8.94
2023-04-27T07:54:09.500Z,9.04
2023-04-27T07:56:43.096Z,9.08
2023-04-27T07:59:15.981Z,9.05
2023-04-27T08:01:49.831Z,9.35
2023-04-27T08:04:22.890Z,9.43
2023-04-27T08:06:56.022Z,9.56
2023-04-27T08:09:29.112Z,9.49
2023-04-27T08:12:03.062Z,9.35
2023-04-27T08:14:35.990Z,9.82
2023-04-27T08:17:08.563Z,9.50
2023-04-27T08:19:46.724Z,9.88
2023-04-27T08:22:19.570Z,9.92
2023-04-27T08:24:52.097Z,9.90
2023-04-27T08:27:24.704Z,10.28
2023-04-27T08:29:58.652Z,10.38
2023-04-27T08:32:31.304Z,10.35
2023-04-27T08:35:04.455Z,10.49
2023-04-27T08:37:37.304Z,10.67
2023-04-27T08:40:11.203Z,10.94
2023-04-27T08:42:59.607Z,11.06
2023-04-27T08:45:32.162Z,10.99
2023-04-27T08:48:05.106Z,11.47
2023-04-27T08:50:44.110Z,11.56
2023-04-27T08:53:22.155Z,11.65
2023-04-27T08:55:56.772Z,11.90
2023-04-27T08:58:39.452Z,11.79
2023-04-27T09:01:12.322Z,11.58
2023-04-27T09:03:46.822Z,11.62
2023-04-27T09:06:33.168Z,11.51
2023-04-27T09:09:07.299Z,11.69
2023-04-27T09:11:39.969Z,11.77
2023-04-27T09:14:22.303Z,12.15
2023-04-27T09:16:57.732Z,12.13
2023-04-27T09:19:31.564Z,12.38
2023-04-27T09:22:11.064Z,12.63
2023-04-27T09:24:53.622Z,12.86
2023-04-27T09:27:26.376Z,12.96
2023-04-27T09:29:58.896Z,13.03
2023-04-27T09:32:31.461Z,13.16
2023-04-27T09:35:21.421Z,12.91
2023-04-27T09:37:55.614Z,13.14
2023-04-27T09:40:31.237Z,12.89
2023-04-27T09:43:03.908Z,13.03
2023-04-27T09:45:37.287Z,13.30
2023-04-27T09:48:12.005Z,13.58
2023-04-27T09:50:46.813Z,13.59
2023-04-27T09:53:33.685Z,13.72
2023-04-27T09:56:46.406Z,14.04
2023-04-27T09:59:58.012Z,14.42
2023-04-27T10:03:10.508Z,14.49
2023-04-27T10:06:10.568Z,14.59
2023-04-27T10:08:43.376Z,15.10
2023-04-27T10:11:19.347Z,15.05
2023-04-27T10:13:54.859Z,15.18
2023-04-27T10:16:27.712Z,14.75
2023-04-27T10:19:00.460Z,14.77
2023-04-27T10:21:33.085Z,15.10
2023-04-27T10:24:09.628Z,15.31
2023-04-27T10:26:47.676Z,15.07
2023-04-27T10:29:20.845Z,15.08
2023-04-27T10:31:53.765Z,15.23
2023-04-27T10:34:28.368Z,15.43
2023-04-27T10:37:11.926Z,15.46
2023-04-27T10:39:49.373Z,14.87
2023-04-27T10:42:28.884Z,14.89
2023-04-27T10:45:01.549Z,14.86
2023-04-27T10:47:45.586Z,14.88
2023-04-27T10:50:18.625Z,14.90
2023-04-27T10:52:51.270Z,14.54
2023-04-27T10:55:24.068Z,14.37
2023-04-27T10:57:57.831Z,13.65
2023-04-27T11:00:44.391Z,13.76
2023-04-27T11:03:22.400Z,14.01
2023-04-27T11:06:04.699Z,13.92
2023-04-27T11:08:45.663Z,14.12
2023-04-27T11:11:18.288Z,14.27
2023-04-27T11:13:53.073Z,13.90
2023-04-27T11:16:25.976Z,13.58
2023-04-27T11:19:06.107Z,14.04
2023-04-27T11:21:38.976Z,14.13
2023-04-27T11:24:13.834Z,13.74
2023-04-27T11:26:53.543Z,13.55
2023-04-27T11:29:26.163Z,13.53
2023-04-27T11:31:59.077Z,13.76
2023-04-27T11:34:36.969Z,13.51
2023-04-27T11:39:46.258Z,13.43
2023-04-27T11:42:21.997Z,13.77
2023-04-27T11:45:01.054Z,13.78
2023-04-27T11:47:36.062Z,14.18
2023-04-27T11:50:09.339Z,14.48
2023-04-27T11:52:42.015Z,14.49
2023-04-27T11:55:16.246Z,14.68
2023-04-27T11:57:49.160Z,14.61
2023-04-27T12:00:21.719Z,14.57
2023-04-27T12:02:54.488Z,14.91
2023-04-27T12:05:27.360Z,15.10
2023-04-27T12:07:59.960Z,15.15
2023-04-27T12:10:32.567Z,15.21
2023-04-27T12:13:05.113Z,15.20
2023-04-27T12:15:38.313Z,15.10
2023-04-27T12:18:11.241Z,15.35
2023-04-27T12:20:43.875Z,14.45
2023-04-27T12:23:16.508Z,14.69
2023-04-27T12:25:49.226Z,14.80
2023-04-27T12:28:21.778Z,14.80
2023-04-27T12:30:55.103Z,14.64
2023-04-27T12:33:27.758Z,15.02
2023-04-27T12:36:00.544Z,14.64
2023-04-27T12:38:33.071Z,14.58
2023-04-27T12:41:05.770Z,14.37
2023-04-27T12:43:38.562Z,14.77
2023-04-27T12:46:11.515Z,15.12
2023-04-27T12:48:44.934Z,15.24
2023-04-27T12:51:17.631Z,15.00
2023-04-27T12:53:50.294Z,15.25
2023-04-27T12:56:22.848Z,15.48
2023-04-27T12:58:55.969Z,15.35
2023-04-27T13:01:28.579Z,15.56
2023-04-27T13:04:04.063Z,16.01
2023-04-27T13:06:36.747Z,16.21
2023-04-27T13:09:09.801Z,16.36
2023-04-27T13:11:42.576Z,16.35
2023-04-27T13:14:15.497Z,16.77
2023-04-27T13:16:48.287Z,16.88
2023-04-27T13:19:20.767Z,16.42
2023-04-27T13:21:53.783Z,16.50
2023-04-27T13:24:29.174Z,16.68
2023-04-27T13:27:01.856Z,16.86
2023-04-27T13:29:34.382Z,16.87
2023-04-27T13:32:06.948Z,16.85
2023-04-27T13:34:39.571Z,16.74
2023-04-27T13:37:12.200Z,16.05
2023-04-27T13:39:44.736Z,17.25
2023-04-27T13:42:17.385Z,17.43
2023-04-27T13:44:49.878Z,17.34
2023-04-27T13:47:22.712Z,17.48
2023-04-27T13:49:55.237Z,17.35
2023-04-27T13:52:27.716Z,17.77
2023-04-27T13:55:00.333Z,17.30
2023-04-27T13:57:33.624Z,17.70
2023-04-27T14:00:11.139Z,17.30
2023-04-27T14:02:43.767Z,16.83
2023-04-27T14:05:16.409Z,16.59
2023-04-27T14:07:48.902Z,16.95
2023-04-27T14:10:22.804Z,17.29
2023-04-27T14:12:56.571Z,17.35
2023-04-27T14:15:29.348Z,17.66
2023-04-27T14:18:01.975Z,17.34
2023-04-27T14:20:36.623Z,17.43
2023-04-27T14:23:09.470Z,17.52
2023-04-27T14:25:42.060Z,17.10
2023-04-27T14:28:14.914Z,16.66
2023-04-27T14:30:47.497Z,16.85
2023-04-27T14:33:20.109Z,17.10
2023-04-27T14:35:52.703Z,17.16
2023-04-27T14:38:25.586Z,17.48
2023-04-27T14:40:58.167Z,17.80
2023-04-27T14:43:31.736Z,17.67
2023-04-27T14:46:19.241Z,17.86
2023-04-27T14:48:53.204Z,17.87
2023-04-27T14:51:26.543Z,18.14
2023-04-27T14:53:59.078Z,17.72
2023-04-27T14:56:31.614Z,17.76
2023-04-27T14:59:05.714Z,17.54
2023-04-27T15:01:38.415Z,17.97
2023-04-27T15:04:12.143Z,17.65
2023-04-27T15:06:44.727Z,17.53
2023-04-27T15:09:17.338Z,17.95
2023-04-27T15:11:49.827Z,17.17
2023-04-27T15:14:22.375Z,16.62
2023-04-27T15:16:57.354Z,16.29
2023-04-27T15:19:29.830Z,16.58
2023-04-27T15:22:02.355Z,16.43
2023-04-27T15:24:34.894Z,16.47
2023-04-27T15:27:10.242Z,16.75
2023-04-27T15:29:42.848Z,17.23
2023-04-27T15:32:16.283Z,16.73
2023-04-27T15:34:50.010Z,16.71
2023-04-27T15:37:27.921Z,16.55
2023-04-27T15:40:00.529Z,16.58
2023-04-27T15:42:34.017Z,16.59
2023-04-27T15:45:09.712Z,16.72
2023-04-27T15:47:44.715Z,16.36
2023-04-27T15:50:18.081Z,16.30
2023-04-27T15:52:50.956Z,16.47
2023-04-27T15:55:23.539Z,16.64
2023-04-27T15:57:56.070Z,16.58
2023-04-27T16:00:28.602Z,16.73
2023-04-27T16:03:01.681Z,16.54
2023-04-27T16:05:34.706Z,16.56
2023-04-27T16:08:07.205Z,16.54
2023-04-27T16:10:39.713Z,16.44
2023-04-27T16:13:12.251Z,16.48
2023-04-27T16:15:44.768Z,16.06
2023-04-27T16:18:18.494Z,16.21
2023-04-27T16:20:53.465Z,16.20
2023-04-27T16:23:26.079Z,16.02
2023-04-27T16:25:58.576Z,15.74
2023-04-27T16:28:32.731Z,15.80
2023-04-27T16:31:05.592Z,15.81
2023-04-27T16:33:38.132Z,15.98
2023-04-27T16:36:11.248Z,15.83
2023-04-27T16:38:43.878Z,15.84
2023-04-27T16:41:16.511Z,15.85
2023-04-27T16:43:50.811Z,15.60
2023-04-27T16:46:27.133Z,15.51
2023-04-27T16:48:59.675Z,15.54
2023-04-27T16:51:33.213Z,15.58
2023-04-27T16:54:08.171Z,15.47
2023-04-27T16:56:40.752Z,15.39
2023-04-27T16:59:13.621Z,15.07
2023-04-27T17:01:46.356Z,14.94
2023-04-27T17:04:19.024Z,14.79
2023-04-27T17:06:52.159Z,14.82
2023-04-27T17:09:25.523Z,14.58
2023-04-27T17:11:57.997Z,14.56
2023-04-27T17:14:30.816Z,14.39
2023-04-27T17:17:03.482Z,14.13
2023-04-27T17:19:36.068Z,14.02
2023-04-27T17:22:11.289Z,13.77
2023-04-27T17:24:46.998Z,13.98
2023-04-27T17:27:19.400Z,14.00
2023-04-27T17:29:53.756Z,14.08
2023-04-27T17:32:26.473Z,14.03
2023-04-27T17:34:59.125Z,14.08
2023-04-27T17:37:31.639Z,13.90
2023-04-27T17:40:09.091Z,13.86
2023-04-27T17:42:41.831Z,13.80
2023-04-27T17:45:14.912Z,13.50
2023-04-27T17:47:47.533Z,13.50
2023-04-27T17:50:20.470Z,13.42
2023-04-27T17:52:53.981Z,13.42
2023-04-27T17:55:26.693Z,13.33
2023-04-27T17:57:59.317Z,13.32
2023-04-27T18:00:32.414Z,13.31
2023-04-27T18:03:05.136Z,13.39
2023-04-27T18:05:38.086Z,13.31
2023-04-27T18:08:11.085Z,13.09
2023-04-27T18:10:43.735Z,13.11
2023-04-27T18:13:16.267Z,13.29
2023-04-27T18:15:48.761Z,13.32
2023-04-27T18:18:23.217Z,13.32
2023-04-27T18:20:57.759Z,13.32
2023-04-27T18:23:30.706Z,13.29
2023-04-27T18:26:03.947Z,12.98
2023-04-27T18:28:37.979Z,13.06
2023-04-27T18:31:18.167Z,13.10
2023-04-27T18:33:53.646Z,13.06
2023-04-27T18:36:27.579Z,12.86
2023-04-27T18:39:00.190Z,12.97
2023-04-27T18:41:32.787Z,12.77
2023-04-27T18:44:06.071Z,12.71
2023-04-27T18:46:38.875Z,12.71
2023-04-27T18:49:12.590Z,12.71
2023-04-27T18:51:45.471Z,12.67
2023-04-27T18:54:17.994Z,12.76
2023-04-27T18:56:53.068Z,12.69
2023-04-27T18:59:25.732Z,12.67
2023-04-27T19:01:58.261Z,12.56
2023-04-27T19:04:31.371Z,12.54
2023-04-27T19:07:03.960Z,12.52
2023-04-27T19:09:36.554Z,12.48
2023-04-27T19:12:19.198Z,12.42
2023-04-27T19:14:52.105Z,12.22
2023-04-27T19:17:29.299Z,12.36
2023-04-27T19:20:02.021Z,12.19
2023-04-27T19:22:36.946Z,12.33
2023-04-27T19:25:10.256Z,12.23
2023-04-27T19:27:43.106Z,12.05
2023-04-27T19:30:16.659Z,11.93
2023-04-27T19:32:57.522Z,12.01
2023-04-27T19:35:30.609Z,11.98
2023-04-27T19:38:08.256Z,11.91
2023-04-27T19:40:40.839Z,11.90
2023-04-27T19:43:14.259Z,11.75
2023-04-27T19:45:49.789Z,11.88
2023-04-27T19:48:28.144Z,11.61
2023-04-27T19:51:01.439Z,11.83
2023-04-27T19:53:34.284Z,11.83
2023-04-27T19:56:12.653Z,11.75
2023-04-27T19:58:46.555Z,11.80
2023-04-27T20:01:21.861Z,11.71
2023-04-27T20:03:55.051Z,11.77
2023-04-27T20:06:27.792Z,11.57
2023-04-27T20:09:06.948Z,11.61
2023-04-27T20:11:43.218Z,11.69
2023-04-27T20:14:16.734Z,11.45
2023-04-27T20:16:49.882Z,11.56
2023-04-27T20:19:25.034Z,11.63
2023-04-27T20:21:57.643Z,11.51
2023-04-27T20:24:30.200Z,11.67
2023-04-27T20:27:06.218Z,11.67
2023-04-27T20:29:39.000Z,11.57
2023-04-27T20:32:11.532Z,11.53
2023-04-27T20:34:44.033Z,11.44
2023-04-27T20:37:17.278Z,11.36
2023-04-27T20:39:49.797Z,11.38
2023-04-27T20:42:22.476Z,11.52
2023-04-27T20:44:55.147Z,11.38
2023-04-27T20:47:27.677Z,11.40
2023-04-27T20:50:00.274Z,11.19
2023-04-27T20:52:34.527Z,11.30
2023-04-27T20:55:07.512Z,11.22
2023-04-27T20:57:40.060Z,11.38
2023-04-27T21:00:15.270Z,11.38
2023-04-27T21:02:48.200Z,11.22
2023-04-27T21:05:20.926Z,11.22
2023-04-27T21:07:54.005Z,11.14
2023-04-27T21:10:26.785Z,11.27
2023-04-27T21:13:01.375Z,11.18
2023-04-27T21:15:33.962Z,11.11
2023-04-27T21:18:09.413Z,11.01
2023-04-27T21:20:46.105Z,11.07
2023-04-27T21:23:19.969Z,11.15
2023-04-27T21:25:52.578Z,10.98
2023-04-27T21:28:25.151Z,11.02
2023-04-27T21:30:57.717Z,11.09
2023-04-27T21:33:31.979Z,11.08
2023-04-27T21:36:05.109Z,11.01
2023-04-27T21:38:37.599Z,11.01
2023-04-27T21:41:11.535Z,10.91
2023-04-27T21:43:44.969Z,10.88
2023-04-27T21:46:17.644Z,10.94
2023-04-27T21:48:50.277Z,10.91
2023-04-27T21:51:22.786Z,10.99
2023-04-27T21:53:55.731Z,10.84
2023-04-27T21:56:28.784Z,10.74
2023-04-27T21:59:01.494Z,10.66
2023-04-27T22:01:34.166Z,10.79
2023-04-27T22:04:06.907Z,10.79
2023-04-27T22:06:39.788Z,10.72
2023-04-27T22:09:12.442Z,10.71
2023-04-27T22:11:45.047Z,10.74
2023-04-27T22:14:17.658Z,10.50
2023-04-27T22:16:50.532Z,10.65
2023-04-27T22:19:25.056Z,10.54
2023-04-27T22:21:57.574Z,10.51
2023-04-27T22:24:30.209Z,10.52
2023-04-27T22:27:03.882Z,10.54
2023-04-27T22:29:36.426Z,10.47
2023-04-27T22:32:09.772Z,10.32
2023-04-27T22:34:42.719Z,10.27
2023-04-27T22:37:15.336Z,10.27
2023-04-27T22:39:47.955Z,10.40
2023-04-27T22:42:20.531Z,10.38
2023-04-27T22:44:53.012Z,10.35
2023-04-27T22:47:25.512Z,10.30
2023-04-27T22:49:58.120Z,10.17
2023-04-27T22:52:33.701Z,10.19
2023-04-27T22:55:07.161Z,10.18
2023-04-27T22:57:41.691Z,10.29
2023-04-27T23:00:15.142Z,10.29
2023-04-27T23:02:47.926Z,10.40
2023-04-27T23:05:20.596Z,10.30
2023-04-27T23:07:53.122Z,10.30
2023-04-27T23:10:26.737Z,10.27
2023-04-27T23:13:01.834Z,10.26
2023-04-27T23:15:34.564Z,10.11
2023-04-27T23:18:07.202Z,10.10
2023-04-27T23:20:39.939Z,10.15
2023-04-27T23:23:12.490Z,9.93
2023-04-27T23:25:45.056Z,9.95
2023-04-27T23:28:17.651Z,10.13
2023-04-27T23:30:55.246Z,9.96
2023-04-27T23:33:28.440Z,9.80
2023-04-27T23:36:01.984Z,9.93
2023-04-27T23:38:34.517Z,9.84
2023-04-27T23:41:07.086Z,9.84
2023-04-27T23:43:39.629Z,9.71
2023-04-27T23:46:12.645Z,9.66
2023-04-27T23:48:46.112Z,9.62
2023-04-27T23:51:18.712Z,9.64
2023-04-27T23:53:51.475Z,9.55
2023-04-27T23:56:24.305Z,9.51
2023-04-27T23:58:56.842Z,9.58
